createdAt,value
2023-04-01T00:01:19.136Z,99307.50
2023-04-01T00:03:47.520Z,99315.63
2023-04-01T00:06:16.843Z,99312.09
2023-04-01T00:08:46.965Z,99305.09
2023-04-01T00:11:15.961Z,99303.38
2023-04-01T00:13:44.462Z,99307.75
2023-04-01T00:16:20.888Z,99300.72
2023-04-01T00:18:51.202Z,99301.81
2023-04-01T00:21:20.329Z,99300.03
2023-04-01T00:23:51.293Z,99300.03
2023-04-01T00:26:21.663Z,99308.00
2023-04-01T00:28:50.009Z,99308.97
2023-04-01T00:31:18.509Z,99308.00
2023-04-01T00:33:47.006Z,99309.69
2023-04-01T00:36:16.299Z,99310.66
2023-04-01T00:38:45.115Z,99307.28
2023-04-01T00:41:17.009Z,99308.13
2023-04-01T00:43:46.719Z,99307.28
2023-04-01T00:46:15.666Z,99310.78
2023-04-01T00:48:46.469Z,99305.56
2023-04-01T00:51:16.679Z,99302.91
2023-04-01T00:53:47.310Z,99305.56
2023-04-01T00:56:18.398Z,99296.75
2023-04-01T00:58:49.289Z,99303.78
2023-04-01T01:01:17.966Z,99296.75
2023-04-01T01:03:46.267Z,99296.75
2023-04-01T01:06:24.444Z,99297.59
2023-04-01T01:09:10.686Z,99297.75
2023-04-01T01:11:43.611Z,99300.03
2023-04-01T01:14:19.654Z,99311.34
2023-04-01T01:16:51.043Z,99308.59
2023-04-01T01:19:30.292Z,99306.78
2023-04-01T01:22:05.477Z,99311.00
2023-04-01T01:24:53.939Z,99310.53
2023-04-01T01:27:24.384Z,99311.63
2023-04-01T01:30:18.782Z,99303.91
2023-04-01T01:33:08.175Z,99308.00
2023-04-01T01:35:41.050Z,99306.56
2023-04-01T01:38:18.947Z,99315.34
2023-04-01T01:40:55.562Z,99311.88
2023-04-01T01:43:26.202Z,99305.25
2023-04-01T01:45:57.108Z,99310.19
2023-04-01T01:48:26.957Z,99300.75
2023-04-01T01:50:56.626Z,99301.75
2023-04-01T01:53:24.957Z,99302.81
2023-04-01T01:55:53.278Z,99299.34
2023-04-01T01:58:24.629Z,99303.09
2023-04-01T02:00:55.797Z,99307.53
2023-04-01T02:03:25.398Z,99303.19
2023-04-01T02:05:55.738Z,99300.44
2023-04-01T02:08:28.133Z,99303.31
2023-04-01T02:10:58.874Z,99299.56
2023-04-01T02:13:32.811Z,99295.34
2023-04-01T02:16:02.931Z,99292.56
2023-04-01T02:18:32.443Z,99299.81
2023-04-01T02:21:02.037Z,99298.97
2023-04-01T02:23:32.153Z,99301.72
2023-04-01T02:26:00.593Z,99298.13
2023-04-01T02:28:30.043Z,99297.41
2023-04-01T02:30:59.836Z,99296.41
2023-04-01T02:33:29.803Z,99310.44
2023-04-01T02:35:58.239Z,99303.19
2023-04-01T02:38:26.496Z,99304.28
2023-04-01T02:41:01.336Z,99315.97
2023-04-01T02:43:29.806Z,99315.16
2023-04-01T02:45:58.104Z,99316.81
2023-04-01T02:48:26.410Z,99315.25
2023-04-01T02:50:54.964Z,99313.44
2023-04-01T02:53:23.118Z,99325.03
2023-04-01T02:55:53.036Z,99322.13
2023-04-01T02:58:22.779Z,99328.53
2023-04-01T03:00:51.378Z,99326.34
2023-04-01T03:03:20.015Z,99332.16
2023-04-01T03:05:48.530Z,99327.09
2023-04-01T03:08:17.135Z,99335.06
2023-04-01T03:10:45.885Z,99340.38
2023-04-01T03:13:14.465Z,99337.59
2023-04-01T03:15:44.509Z,99336.00
2023-04-01T03:18:13.093Z,99335.16
2023-04-01T03:20:41.636Z,99339.63
2023-04-01T03:23:10.228Z,99348.56
2023-04-01T03:25:39.069Z,99339.03
2023-04-01T03:28:07.711Z,99345.31
2023-04-01T03:30:36.194Z,99343.72
2023-04-01T03:33:06.337Z,99350.72
2023-04-01T03:35:37.214Z,99347.34
2023-04-01T03:38:05.671Z,99356.28
2023-04-01T03:40:34.301Z,99356.53
2023-04-01T03:43:03.048Z,99358.34
2023-04-01T03:45:31.915Z,99357.47
2023-04-01T03:48:02.308Z,99357.59
2023-04-01T03:50:32.297Z,99363.75
2023-04-01T03:53:00.943Z,99367.34
2023-04-01T03:55:29.504Z,99370.97
2023-04-01T03:57:57.986Z,99368.56
2023-04-01T04:00:26.605Z,99366.75
2023-04-01T04:02:57.770Z,99374.81
2023-04-01T04:05:33.907Z,99368.91
2023-04-01T04:08:05.757Z,99370.59
2023-04-01T04:10:36.419Z,99382.06
2023-04-01T04:13:04.750Z,99384.00
2023-04-01T04:15:37.110Z,99381.34
2023-04-01T04:18:08.212Z,99391.97
2023-04-01T04:20:38.325Z,99380.59
2023-04-01T04:23:07.073Z,99375.31
2023-04-01T04:25:36.833Z,99372.88
2023-04-01T04:28:05.553Z,99378.31
2023-04-01T04:30:34.327Z,99371.91
2023-04-01T04:33:03.242Z,99379.91
2023-04-01T04:35:31.932Z,99382.19
2023-04-01T04:38:02.185Z,99381.69
2023-04-01T04:40:30.668Z,99386.59
2023-04-01T04:42:59.047Z,99390.84
2023-04-01T04:45:27.653Z,99392.53
2023-04-01T04:47:58.400Z,99394.56
2023-04-01T04:50:27.530Z,99388.31
2023-04-01T04:52:56.138Z,99396.28
2023-04-01T04:55:26.146Z,99403.34
2023-04-01T04:58:15.199Z,99401.09
2023-04-01T05:00:45.945Z,99406.25
2023-04-01T05:03:21.680Z,99409.63
2023-04-01T05:05:51.440Z,99405.50
2023-04-01T05:08:22.452Z,99408.16
2023-04-01T05:10:52.576Z,99409.03
2023-04-01T05:13:20.977Z,99412.63
2023-04-01T05:15:49.872Z,99410.81
2023-04-01T05:18:18.612Z,99413.59
2023-04-01T05:20:50.624Z,99407.00
2023-04-01T05:23:19.393Z,99407.44
2023-04-01T05:25:48.114Z,99409.81
2023-04-01T05:28:18.299Z,99417.44
2023-04-01T05:30:48.569Z,99426.41
2023-04-01T05:33:26.010Z,99430.09
2023-04-01T05:35:54.566Z,99428.06
2023-04-01T05:38:23.172Z,99425.50
2023-04-01T05:40:52.003Z,99428.16
2023-04-01T05:43:22.184Z,99434.34
2023-04-01T05:45:52.129Z,99436.84
2023-04-01T05:48:46.414Z,99443.72
2023-04-01T05:51:15.769Z,99444.44
2023-04-01T05:53:44.392Z,99446.13
2023-04-01T05:56:12.960Z,99439.13
2023-04-01T05:58:52.778Z,99447.34
2023-04-01T06:01:21.591Z,99439.13
2023-04-01T06:03:50.407Z,99446.13
2023-04-01T06:06:22.809Z,99438.91
2023-04-01T06:08:51.864Z,99448.44
2023-04-01T06:11:25.922Z,99445.16
2023-04-01T06:14:06.466Z,99446.56
2023-04-01T06:16:41.728Z,99447.53
2023-04-01T06:19:20.015Z,99448.28
2023-04-01T06:22:09.040Z,99446.97
2023-04-01T06:24:47.035Z,99455.25
2023-04-01T06:27:21.888Z,99450.28
2023-04-01T06:29:56.820Z,99451.16
2023-04-01T06:32:32.984Z,99452.84
2023-04-01T06:35:18.972Z,99446.34
2023-04-01T06:37:58.108Z,99451.66
2023-04-01T06:40:43.524Z,99453.09
2023-04-01T06:43:16.988Z,99457.34
2023-04-01T06:46:22.431Z,99456.25
2023-04-01T06:49:20.080Z,99458.22
2023-04-01T06:52:26.376Z,99454.13
2023-04-01T06:55:22.728Z,99462.69
2023-04-01T06:58:13.986Z,99451.75
2023-04-01T07:00:43.216Z,99462.31
2023-04-01T07:03:18.963Z,99461.72
2023-04-01T07:05:47.377Z,99462.38
2023-04-01T07:08:20.465Z,99462.38
2023-04-01T07:10:51.531Z,99459.25
2023-04-01T07:13:57.402Z,99468.28
2023-04-01T07:16:29.406Z,99468.06
2023-04-01T07:19:02.242Z,99473.25
2023-04-01T07:21:46.385Z,99474.81
2023-04-01T07:24:24.529Z,99487.34
2023-04-01T07:27:03.845Z,99484.00
2023-04-01T07:29:35.867Z,99495.69
2023-04-01T07:32:13.502Z,99501.94
2023-04-01T07:34:48.884Z,99496.38
2023-04-01T07:37:21.418Z,99503.16
2023-04-01T07:39:54.626Z,99505.59
2023-04-01T07:42:35.923Z,99514.75
2023-04-01T07:45:08.480Z,99513.56
2023-04-01T07:47:45.714Z,99517.28
2023-04-01T07:50:21.046Z,99510.16
2023-04-01T07:52:55.730Z,99514.97
2023-04-01T07:55:31.752Z,99513.56
2023-04-01T07:58:05.067Z,99513.31
2023-04-01T08:00:45.148Z,99513.84
2023-04-01T08:03:48.116Z,99516.94
2023-04-01T08:06:21.278Z,99511.06
2023-04-01T08:08:57.027Z,99507.91
2023-04-01T08:11:56.199Z,99514.06
2023-04-01T08:14:50.950Z,99520.16
2023-04-01T08:17:42.662Z,99522.31
2023-04-01T08:20:26.266Z,99524.38
2023-04-01T08:23:00.169Z,99525.63
2023-04-01T08:25:35.091Z,99525.47
2023-04-01T08:28:10.786Z,99520.91
2023-04-01T08:30:43.635Z,99525.25
2023-04-01T08:33:15.482Z,99528.16
2023-04-01T08:35:48.230Z,99525.88
2023-04-01T08:38:21.608Z,99532.78
2023-04-01T08:40:57.661Z,99540.41
2023-04-01T08:43:48.635Z,99532.78
2023-04-01T08:46:37.897Z,99527.47
2023-04-01T08:49:13.379Z,99528.69
2023-04-01T08:51:59.445Z,99525.97
2023-04-01T08:54:36.484Z,99527.06
2023-04-01T08:57:10.652Z,99532.72
2023-04-01T09:00:01.188Z,99535.28
2023-04-01T09:02:54.409Z,99537.09
2023-04-01T09:05:38.026Z,99534.06
2023-04-01T09:08:14.388Z,99533.34
2023-04-01T09:10:52.064Z,99540.94
2023-04-01T09:13:59.992Z,99543.59
2023-04-01T09:16:48.200Z,99552.56
2023-04-01T09:19:31.429Z,99555.94
2023-04-01T09:22:30.418Z,99562.59
2023-04-01T09:25:17.823Z,99567.91
2023-04-01T09:27:55.745Z,99563.81
2023-04-01T09:30:46.290Z,99566.22
2023-04-01T09:33:31.132Z,99565.97
2023-04-01T09:36:06.341Z,99570.84
2023-04-01T09:38:44.253Z,99569.81
2023-04-01T09:41:19.820Z,99580.25
2023-04-01T09:44:20.673Z,99577.44
2023-04-01T09:47:24.221Z,99585.78
2023-04-01T09:50:09.632Z,99584.81
2023-04-01T09:52:41.421Z,99584.34
2023-04-01T09:55:31.952Z,99587.69
2023-04-01T09:58:18.444Z,99589.94
2023-04-01T10:01:23.517Z,99594.56
2023-04-01T10:04:21.935Z,99593.34
2023-04-01T10:06:59.787Z,99593.81
2023-04-01T10:09:47.499Z,99587.44
2023-04-01T10:12:33.775Z,99590.69
2023-04-01T10:15:17.921Z,99593.69
2023-04-01T10:18:01.171Z,99597.66
2023-04-01T10:20:44.662Z,99596.09
2023-04-01T10:23:20.758Z,99601.50
2023-04-01T10:26:07.846Z,99601.28
2023-04-01T10:28:44.819Z,99618.06
2023-04-01T10:31:41.037Z,99615.91
2023-04-01T10:34:30.510Z,99617.50
2023-04-01T10:36:59.352Z,99630.16
2023-04-01T10:39:57.786Z,99633.03
2023-04-01T10:43:09.393Z,99633.53
2023-04-01T10:46:15.619Z,99645.03
2023-04-01T10:49:04.308Z,99640.56
2023-04-01T10:51:51.322Z,99639.00
2023-04-01T10:54:44.247Z,99645.38
2023-04-01T10:57:46.059Z,99638.00
2023-04-01T11:00:51.335Z,99643.56
2023-04-01T11:03:53.176Z,99654.19
2023-04-01T11:07:07.900Z,99654.69
2023-04-01T11:09:51.235Z,99654.06
2023-04-01T11:12:53.474Z,99663.41
2023-04-01T11:15:48.049Z,99656.09
2023-04-01T11:18:50.939Z,99663.00
2023-04-01T11:21:36.789Z,99661.19
2023-04-01T11:24:12.194Z,99667.25
2023-04-01T11:26:55.963Z,99669.28
2023-04-01T11:30:00.208Z,99673.91
2023-04-01T11:32:44.751Z,99684.72
2023-04-01T11:35:33.643Z,99685.66
2023-04-01T11:38:10.732Z,99686.75
2023-04-01T11:40:59.848Z,99681.38
2023-04-01T11:44:14.169Z,99687.97
2023-04-01T11:47:21.605Z,99679.72
2023-04-01T11:49:58.291Z,99691.50
2023-04-01T11:52:54.234Z,99691.75
2023-04-01T11:55:27.794Z,99695.38
2023-04-01T11:58:10.227Z,99703.22
2023-04-01T12:00:51.473Z,99714.28
2023-04-01T12:03:31.326Z,99710.66
2023-04-01T12:06:07.728Z,99719.78
2023-04-01T12:08:41.720Z,99722.66
2023-04-01T12:11:18.836Z,99722.03
2023-04-01T12:13:52.571Z,99722.31
2023-04-01T12:16:36.077Z,99725.69
2023-04-01T12:19:12.019Z,99724.03
2023-04-01T12:21:41.061Z,99714.00
2023-04-01T12:24:27.881Z,99729.53
2023-04-01T12:27:02.571Z,99723.03
2023-04-01T12:29:45.878Z,99733.13
2023-04-01T12:32:21.460Z,99732.53
2023-04-01T12:34:59.570Z,99732.94
2023-04-01T12:37:32.002Z,99739.44
2023-04-01T12:40:05.435Z,99735.06
2023-04-01T12:42:39.478Z,99750.81
2023-04-01T12:45:20.670Z,99752.19
2023-04-01T12:48:09.466Z,99752.59
2023-04-01T12:50:50.831Z,99750.34
2023-04-01T12:53:35.134Z,99759.81
2023-04-01T12:56:05.403Z,99765.66
2023-04-01T12:58:54.408Z,99766.81
2023-04-01T13:01:27.858Z,99769.91
2023-04-01T13:04:03.834Z,99779.44
2023-04-01T13:06:55.758Z,99786.06
2023-04-01T13:09:30.679Z,99777.88
2023-04-01T13:12:09.554Z,99782.97
2023-04-01T13:14:52.335Z,99780.31
2023-04-01T13:17:24.670Z,99786.78
2023-04-01T13:20:05.053Z,99782.13
2023-04-01T13:22:42.248Z,99781.59
2023-04-01T13:25:17.567Z,99802.84
2023-04-01T13:27:46.992Z,99800.47
2023-04-01T13:30:24.760Z,99794.13
2023-04-01T13:32:56.400Z,99797.72
2023-04-01T13:35:30.225Z,99811.75
2023-04-01T13:38:14.846Z,99805.88
2023-04-01T13:41:02.218Z,99813.31
2023-04-01T13:43:33.611Z,99817.03
2023-04-01T13:46:11.940Z,99824.06
2023-04-01T13:49:07.140Z,99829.59
2023-04-01T13:51:46.019Z,99830.22
2023-04-01T13:54:32.749Z,99832.56
2023-04-01T13:57:10.784Z,99834.59
2023-04-01T13:59:54.142Z,99845.72
2023-04-01T14:02:31.729Z,99834.69
2023-04-01T14:05:11.957Z,99840.19
2023-04-01T14:07:49.784Z,99844.13
2023-04-01T14:10:23.141Z,99839.78
2023-04-01T14:12:59.780Z,99849.53
2023-04-01T14:15:43.289Z,99851.47
2023-04-01T14:18:22.339Z,99861.66
2023-04-01T14:20:54.282Z,99861.03
2023-04-01T14:23:42.626Z,99858.47
2023-04-01T14:26:28.894Z,99870.16
2023-04-01T14:29:03.700Z,99862.28
2023-04-01T14:31:56.349Z,99873.97
2023-04-01T14:34:29.428Z,99874.41
2023-04-01T14:37:03.819Z,99873.66
2023-04-01T14:39:41.527Z,99878.22
2023-04-01T14:42:24.957Z,99885.03
2023-04-01T14:45:00.152Z,99888.75
2023-04-01T14:47:40.975Z,99876.84
2023-04-01T14:50:12.028Z,99892.56
2023-04-01T14:52:42.316Z,99892.25
2023-04-01T14:55:21.590Z,99896.25
2023-04-01T14:58:00.489Z,99906.25
2023-04-01T15:00:43.186Z,99911.66
2023-04-01T15:03:18.348Z,99910.81
2023-04-01T15:05:50.329Z,99913.91
2023-04-01T15:08:20.684Z,99919.63
2023-04-01T15:10:55.788Z,99926.53
2023-04-01T15:13:33.030Z,99925.47
2023-04-01T15:16:07.787Z,99926.00
2023-04-01T15:18:41.263Z,99933.94
2023-04-01T15:21:17.366Z,99929.59
2023-04-01T15:23:51.113Z,99935.66
2023-04-01T15:26:29.688Z,99944.16
2023-04-01T15:29:11.882Z,99944.88
2023-04-01T15:31:44.417Z,99943.81
2023-04-01T15:34:23.483Z,99957.19
2023-04-01T15:36:55.846Z,99947.66
2023-04-01T15:39:27.536Z,99964.41
2023-04-01T15:42:06.958Z,99972.38
2023-04-01T15:44:42.638Z,99975.41
2023-04-01T15:47:28.250Z,99976.38
2023-04-01T15:49:59.616Z,99978.41
2023-04-01T15:52:39.736Z,99974.56
2023-04-01T15:55:17.497Z,99980.09
2023-04-01T15:57:53.543Z,99988.34
2023-04-01T16:00:26.986Z,99992.91
2023-04-01T16:03:12.607Z,99990.25
2023-04-01T16:05:47.531Z,99995.75
2023-04-01T16:08:22.772Z,100001.69
2023-04-01T16:11:11.444Z,100003.00
2023-04-01T16:13:52.546Z,100014.50
2023-04-01T16:16:25.985Z,100018.78
2023-04-01T16:19:09.128Z,100018.88
2023-04-01T16:21:43.312Z,100022.50
2023-04-01T16:24:17.950Z,100032.44
2023-04-01T16:26:51.163Z,100038.63
2023-04-01T16:29:25.830Z,100039.00
2023-04-01T16:31:58.033Z,100043.75
2023-04-01T16:34:29.884Z,100048.09
2023-04-01T16:37:02.985Z,100058.06
2023-04-01T16:39:37.504Z,100053.41
2023-04-01T16:42:18.360Z,100055.75
2023-04-01T16:44:51.141Z,100062.13
2023-04-01T16:47:21.940Z,100058.91
2023-04-01T16:49:55.368Z,100057.22
2023-04-01T16:52:38.291Z,100064.50
2023-04-01T16:55:16.859Z,100079.66
2023-04-01T16:57:48.973Z,100073.50
2023-04-01T17:00:19.271Z,100078.91
2023-04-01T17:02:53.573Z,100091.97
2023-04-01T17:05:23.253Z,100091.13
2023-04-01T17:08:04.324Z,100095.41
2023-04-01T17:10:46.394Z,100093.31
2023-04-01T17:13:40.098Z,100107.41
2023-04-01T17:16:17.481Z,100104.19
2023-04-01T17:18:50.600Z,100110.25
2023-04-01T17:21:21.433Z,100114.59
2023-04-01T17:23:53.466Z,100118.03
2023-04-01T17:26:28.883Z,100113.69
2023-04-01T17:29:01.641Z,100127.13
2023-04-01T17:31:38.846Z,100133.66
2023-04-01T17:34:20.118Z,100134.31
2023-04-01T17:36:55.476Z,100131.94
2023-04-01T17:39:33.099Z,100140.75
2023-04-01T17:42:07.332Z,100130.22
2023-04-01T17:44:39.904Z,100141.13
2023-04-01T17:47:20.765Z,100141.72
2023-04-01T17:49:55.394Z,100154.22
2023-04-01T17:52:27.545Z,100156.84
2023-04-01T17:55:01.261Z,100161.97
2023-04-01T17:57:41.027Z,100164.91
2023-04-01T18:00:21.732Z,100168.31
2023-04-01T18:02:56.881Z,100166.69
2023-04-01T18:05:39.686Z,100169.25
2023-04-01T18:08:14.141Z,100180.03
2023-04-01T18:10:53.318Z,100185.44
2023-04-01T18:13:33.118Z,100189.78
2023-04-01T18:16:08.456Z,100193.41
2023-04-01T18:18:44.663Z,100188.44
2023-04-01T18:21:17.006Z,100193.75
2023-04-01T18:23:59.549Z,100207.78
2023-04-01T18:26:34.128Z,100203.50
2023-04-01T18:29:06.758Z,100204.53
2023-04-01T18:31:37.549Z,100211.72
2023-04-01T18:34:09.926Z,100217.22
2023-04-01T18:36:46.218Z,100224.91
2023-04-01T18:39:18.300Z,100220.81
2023-04-01T18:41:54.096Z,100221.69
2023-04-01T18:44:30.470Z,100226.97
2023-04-01T18:47:05.687Z,100228.09
2023-04-01T18:49:41.727Z,100232.53
2023-04-01T18:52:13.256Z,100232.63
2023-04-01T18:54:45.768Z,100232.53
2023-04-01T18:57:16.636Z,100232.53
2023-04-01T18:59:47.853Z,100236.88
2023-04-01T19:02:19.221Z,100237.84
2023-04-01T19:04:51.704Z,100240.50
2023-04-01T19:07:29.228Z,100240.50
2023-04-01T19:10:03.866Z,100248.38
2023-04-01T19:12:43.328Z,100246.72
2023-04-01T19:15:18.168Z,100248.38
2023-04-01T19:17:50.783Z,100247.41
2023-04-01T19:20:21.702Z,100258.97
2023-04-01T19:22:58.723Z,100257.75
2023-04-01T19:25:38.026Z,100261.44
2023-04-01T19:28:19.503Z,100270.31
2023-04-01T19:30:53.890Z,100269.28
2023-04-01T19:33:28.058Z,100272.34
2023-04-01T19:36:01.956Z,100270.88
2023-04-01T19:38:36.167Z,100284.06
2023-04-01T19:41:06.926Z,100284.44
2023-04-01T19:43:46.946Z,100288.97
2023-04-01T19:46:20.549Z,100283.94
2023-04-01T19:49:00.224Z,100289.03
2023-04-01T19:51:34.205Z,100293.50
2023-04-01T19:54:06.524Z,100305.31
2023-04-01T19:56:38.726Z,100303.50
2023-04-01T19:59:14.833Z,100305.38
2023-04-01T20:01:47.485Z,100305.38
2023-04-01T20:04:17.970Z,100310.69
2023-04-01T20:06:51.066Z,100305.78
2023-04-01T20:09:41.700Z,100317.53
2023-04-01T20:12:15.858Z,100318.13
2023-04-01T20:14:49.398Z,100319.03
2023-04-01T20:17:23.077Z,100330.78
2023-04-01T20:19:56.908Z,100330.94
2023-04-01T20:22:37.613Z,100330.19
2023-04-01T20:25:12.195Z,100330.59
2023-04-01T20:27:43.368Z,100339.47
2023-04-01T20:30:37.230Z,100332.66
2023-04-01T20:33:16.809Z,100342.41
2023-04-01T20:35:50.999Z,100343.44
2023-04-01T20:38:33.284Z,100345.13
2023-04-01T20:41:05.457Z,100351.47
2023-04-01T20:43:55.227Z,100347.88
2023-04-01T20:46:26.326Z,100360.38
2023-04-01T20:49:21.746Z,100361.22
2023-04-01T20:51:55.944Z,100366.59
2023-04-01T20:54:31.165Z,100368.22
2023-04-01T20:57:05.981Z,100373.50
2023-04-01T20:59:44.480Z,100371.63
2023-04-01T21:02:25.802Z,100371.81
2023-04-01T21:05:10.418Z,100374.66
2023-04-01T21:07:44.136Z,100378.63
2023-04-01T21:10:23.672Z,100379.00
2023-04-01T21:12:56.934Z,100384.13
2023-04-01T21:15:32.219Z,100387.13
2023-04-01T21:18:06.881Z,100387.13
2023-04-01T21:20:43.529Z,100385.25
2023-04-01T21:23:22.866Z,100390.53
2023-04-01T21:25:59.792Z,100380.19
2023-04-01T21:28:36.088Z,100389.19
2023-04-01T21:31:23.080Z,100391.47
2023-04-01T21:34:06.713Z,100389.06
2023-04-01T21:36:45.257Z,100392.84
2023-04-01T21:39:24.940Z,100398.66
2023-04-01T21:42:05.820Z,100406.25
2023-04-01T21:44:54.794Z,100407.72
2023-04-01T21:47:43.151Z,100405.91
2023-04-01T21:50:27.078Z,100408.56
2023-04-01T21:53:10.237Z,100408.81
2023-04-01T21:55:50.072Z,100413.34
2023-04-01T21:58:40.822Z,100423.16
2023-04-01T22:01:17.784Z,100412.56
2023-04-01T22:04:00.958Z,100415.38
2023-04-01T22:06:31.944Z,100419.00
2023-04-01T22:09:12.881Z,100423.50
2023-04-01T22:11:50.740Z,100431.47
2023-04-01T22:14:21.353Z,100434.16
2023-04-01T22:16:53.082Z,100429.72
2023-04-01T22:19:23.593Z,100440.31
2023-04-01T22:22:02.548Z,100437.78
2023-04-01T22:24:40.138Z,100436.94
2023-04-01T22:27:10.257Z,100441.34
2023-04-01T22:29:42.941Z,100444.88
2023-04-01T22:32:14.703Z,100451.78
2023-04-01T22:34:48.835Z,100451.78
2023-04-01T22:37:20.962Z,100457.16
2023-04-01T22:40:01.256Z,100462.41
2023-04-01T22:42:38.600Z,100460.59
2023-04-01T22:45:18.296Z,100468.53
2023-04-01T22:47:53.174Z,100460.59
2023-04-01T22:50:24.066Z,100468.53
2023-04-01T22:52:59.519Z,100465.97
2023-04-01T22:55:30.571Z,100468.53
2023-04-01T22:58:00.979Z,100470.22
2023-04-01T23:00:32.940Z,100474.69
2023-04-01T23:03:11.318Z,100474.63
2023-04-01T23:05:42.060Z,100471.00
2023-04-01T23:08:27.721Z,100477.25
2023-04-01T23:10:58.550Z,100482.38
2023-04-01T23:13:29.565Z,100477.25
2023-04-01T23:15:58.205Z,100481.63
2023-04-01T23:18:30.443Z,100478.00
2023-04-01T23:21:09.171Z,100484.25
2023-04-01T23:23:45.753Z,100493.16
2023-04-01T23:26:22.032Z,100490.56
2023-04-01T23:28:52.041Z,100493.16
2023-04-01T23:31:38.118Z,100506.41
2023-04-01T23:34:22.950Z,100505.44
2023-04-01T23:36:53.416Z,100502.72
2023-04-01T23:39:24.877Z,100513.84
2023-04-01T23:41:55.726Z,100505.03
2023-04-01T23:44:26.639Z,100507.63
2023-04-01T23:46:56.046Z,100511.97
2023-04-01T23:49:26.714Z,100512.91
2023-04-01T23:51:57.679Z,100514.63
2023-04-01T23:54:29.326Z,100522.81
2023-04-01T23:56:59.529Z,100527.19
2023-04-01T23:59:31.110Z,100528.03
